Time;durP1;ratioP1;P1;durP2;ratioP2;P2;SDS_P1;SDS_P2;PMS_P1;PMS_P2;Temp;Humidity;BMP_temperature;BMP_pressure;BME280_temperature;BME280_humidity;BME280_pressure;Samples;Min_cycle;Max_cycle;Signal;HPM_P1;HPM_P2
2021/04/28 00:00:39;;;;;;;4.55;2.40;;;5.30;98.60;;;;;;5127118;28;20090;-85
2021/04/28 00:03:09;;;;;;;4.55;2.63;;;5.00;98.80;;;;;;5110774;28;20050;-85
2021/04/28 00:05:37;;;;;;;4.75;2.65;;;4.90;98.90;;;;;;5126953;28;20043;-84
2021/04/28 00:08:05;;;;;;;8.35;2.55;;;5.00;99.10;;;;;;5110715;28;20494;-85
2021/04/28 00:10:36;;;;;;;3.83;2.47;;;4.90;98.90;;;;;;5128374;28;20085;-85
2021/04/28 00:13:04;;;;;;;6.03;2.58;;;4.90;98.70;;;;;;5127856;28;20046;-85
2021/04/28 00:15:33;;;;;;;6.80;2.60;;;4.90;98.70;;;;;;5127243;28;20089;-86
2021/04/28 00:18:01;;;;;;;4.88;2.47;;;4.80;98.30;;;;;;5126722;28;20491;-86
2021/04/28 00:20:28;;;;;;;3.50;2.20;;;4.90;98.40;;;;;;5093600;28;20119;-85
2021/04/28 00:22:55;;;;;;;4.60;2.30;;;5.00;98.10;;;;;;5128184;28;20032;-85
2021/04/28 00:25:23;;;;;;;3.70;2.30;;;4.90;98.10;;;;;;5127226;28;20047;-85
2021/04/28 00:27:50;;;;;;;7.20;2.40;;;4.80;98.20;;;;;;5110607;28;20036;-85
2021/04/28 00:30:18;;;;;;;6.63;2.38;;;5.10;98.60;;;;;;5110651;28;20036;-85
2021/04/28 00:32:45;;;;;;;3.92;2.20;;;4.60;98.60;;;;;;5127901;28;20056;-85
2021/04/28 00:35:14;;;;;;;3.78;2.20;;;4.90;98.60;;;;;;5110281;28;20488;-86
2021/04/28 00:37:41;;;;;;;7.20;2.47;;;4.70;97.90;;;;;;5109898;28;20396;-84
2021/04/28 00:40:14;;;;;;;5.25;2.30;;;4.70;97.70;;;;;;5093384;28;20048;-85
2021/04/28 00:42:42;;;;;;;4.43;2.22;;;4.60;97.80;;;;;;5127733;28;20113;-85
2021/04/28 00:45:10;;;;;;;5.78;2.03;;;4.60;97.80;;;;;;5110320;28;20044;-85
2021/04/28 00:47:38;;;;;;;3.80;2.20;;;4.50;97.40;;;;;;5094093;28;20028;-85
2021/04/28 00:50:06;;;;;;;4.32;2.25;;;4.50;97.40;;;;;;5126729;28;20032;-85
2021/04/28 00:52:33;;;;;;;5.18;2.25;;;4.40;97.10;;;;;;5127214;28;20041;-86
2021/04/28 00:55:03;;;;;;;4.40;2.10;;;4.50;97.00;;;;;;5093426;28;20032;-85
2021/04/28 00:57:29;;;;;;;3.45;1.95;;;4.40;97.10;;;;;;5127681;28;20040;-85
2021/04/28 00:59:56;;;;;;;4.75;2.03;;;4.40;96.80;;;;;;5110373;28;20381;-85
2021/04/28 01:02:23;;;;;;;3.70;1.90;;;4.30;96.40;;;;;;5110352;28;20040;-86
2021/04/28 01:04:51;;;;;;;5.03;2.33;;;4.40;96.50;;;;;;5109614;28;20040;-85
2021/04/28 01:07:20;;;;;;;3.88;1.90;;;4.40;96.80;;;;;;5093586;28;20036;-85
2021/04/28 01:09:48;;;;;;;4.43;2.00;;;4.40;96.70;;;;;;5126318;28;20127;-85
2021/04/28 01:12:16;;;;;;;7.15;1.90;;;4.40;96.90;;;;;;5109732;28;20032;-86
2021/04/28 01:14:43;;;;;;;4.55;1.95;;;4.60;96.90;;;;;;5126721;28;20036;-85
2021/04/28 01:17:10;;;;;;;6.05;2.05;;;4.40;96.30;;;;;;5110017;28;20032;-85
2021/04/28 01:19:38;;;;;;;3.22;1.80;;;4.30;96.40;;;;;;5109826;28;20109;-85
2021/04/28 01:22:06;;;;;;;3.53;2.10;;;4.30;96.90;;;;;;5125936;28;20036;-85
2021/04/28 01:24:33;;;;;;;6.57;1.90;;;4.30;96.90;;;;;;5126549;28;20036;-85
2021/04/28 01:27:04;;;;;;;5.93;1.88;;;4.20;96.80;;;;;;5092902;28;20036;-85
2021/04/28 01:29:33;;;;;;;10.70;2.47;;;4.20;96.80;;;;;;5114140;28;20040;-85
2021/04/28 01:32:02;;;;;;;3.88;2.25;;;4.30;97.10;;;;;;5129785;28;20040;-85
2021/04/28 01:34:32;;;;;;;6.15;2.30;;;4.10;96.50;;;;;;5113144;28;20107;-85
2021/04/28 01:37:01;;;;;;;5.85;2.15;;;4.20;96.50;;;;;;5130959;28;20157;-85
2021/04/28 01:39:29;;;;;;;6.50;2.00;;;4.30;96.40;;;;;;5129800;28;20060;-85
2021/04/28 01:41:57;;;;;;;4.30;2.40;;;4.00;97.30;;;;;;5096358;28;20039;-85
2021/04/28 01:44:24;;;;;;;3.97;2.20;;;4.10;97.90;;;;;;5113099;28;20098;-85
2021/04/28 01:46:55;;;;;;;4.93;2.30;;;4.00;97.40;;;;;;5129658;28;20043;-84
2021/04/28 01:49:23;;;;;;;4.80;2.17;;;4.20;98.00;;;;;;5096301;28;20051;-85
2021/04/28 01:51:54;;;;;;;7.55;2.50;;;4.10;98.70;;;;;;5095745;28;20536;-84
2021/04/28 01:54:22;;;;;;;3.67;2.30;;;4.00;99.30;;;;;;5129896;28;20081;-85
2021/04/28 01:56:52;;;;;;;4.72;2.30;;;3.70;99.10;;;;;;5129318;28;20074;-84
2021/04/28 01:59:21;;;;;;;4.15;2.40;;;3.70;99.70;;;;;;5129697;28;20064;-85
2021/04/28 02:01:51;;;;;;;6.18;2.50;;;3.70;99.90;;;;;;5129779;28;20484;-85
2021/04/28 02:04:18;;;;;;;5.82;2.55;;;3.60;99.90;;;;;;5112978;28;20089;-85
2021/04/28 02:06:48;;;;;;;4.30;2.47;;;3.60;99.90;;;;;;5096438;28;20082;-85
2021/04/28 02:09:16;;;;;;;5.90;2.50;;;3.50;99.90;;;;;;5112665;28;20036;-85
2021/04/28 02:11:43;;;;;;;5.47;2.63;;;3.40;99.90;;;;;;5112839;28;20085;-85
2021/04/28 02:14:16;;;;;;;6.35;2.63;;;3.40;99.90;;;;;;5112446;28;20040;-85
2021/04/28 02:16:43;;;;;;;4.78;2.55;;;3.50;99.90;;;;;;5129421;28;20447;-85
2021/04/28 02:19:12;;;;;;;5.85;2.33;;;3.30;99.90;;;;;;5095452;28;20036;-85
2021/04/28 02:21:57;;;;;;;4.90;2.67;;;3.30;99.90;;;;;;5096149;28;20028;-85
2021/04/28 02:24:24;;;;;;;4.80;2.58;;;3.20;99.90;;;;;;5129666;28;20115;-85
2021/04/28 02:26:56;;;;;;;5.43;2.63;;;3.20;99.90;;;;;;5095696;28;20468;-85
2021/04/28 02:29:23;;;;;;;8.65;2.90;;;3.10;99.90;;;;;;5112485;28;20400;-85
2021/04/28 02:31:50;;;;;;;4.03;2.60;;;3.40;99.90;;;;;;5112305;28;20048;-85
2021/04/28 02:34:17;;;;;;;6.82;2.60;;;3.30;99.90;;;;;;5111782;28;20122;-85
2021/04/28 02:36:49;;;;;;;5.95;2.88;;;2.90;99.90;;;;;;5095761;28;20062;-85
2021/04/28 02:39:25;;;;;;;7.50;2.88;;;2.80;99.90;;;;;;5128248;28;20044;-85
2021/04/28 02:41:54;;;;;;;4.85;2.67;;;2.80;99.90;;;;;;5128893;28;20052;-85
2021/04/28 02:44:24;;;;;;;4.28;2.55;;;2.80;99.90;;;;;;5129017;28;20036;-85
2021/04/28 02:46:54;;;;;;;5.10;2.80;;;2.70;99.90;;;;;;5112200;28;20478;-86
2021/04/28 02:49:22;;;;;;;5.03;2.95;;;2.90;99.90;;;;;;5112020;28;20047;-85
2021/04/28 02:51:51;;;;;;;4.95;2.85;;;3.00;99.90;;;;;;5095511;28;20122;-86
2021/04/28 02:54:20;;;;;;;4.75;3.08;;;2.70;99.90;;;;;;5130129;28;20060;-85
2021/04/28 02:56:51;;;;;;;5.80;3.05;;;2.50;99.90;;;;;;5129884;28;20115;-86
2021/04/28 02:59:19;;;;;;;6.25;2.97;;;2.50;99.90;;;;;;5111360;28;20044;-86
2021/04/28 03:01:48;;;;;;;5.60;2.90;;;2.50;99.90;;;;;;5128684;28;20044;-86
2021/04/28 03:04:18;;;;;;;5.05;2.72;;;2.60;99.90;;;;;;5111253;28;20036;-85
2021/04/28 03:06:45;;;;;;;7.45;3.10;;;2.50;99.90;;;;;;5111578;28;20048;-86
2021/04/28 03:09:16;;;;;;;6.75;2.97;;;2.90;99.90;;;;;;5111170;28;20032;-86
2021/04/28 03:11:44;;;;;;;5.30;2.97;;;2.80;99.90;;;;;;5128482;28;20047;-85
2021/04/28 03:14:11;;;;;;;7.45;3.00;;;2.50;99.90;;;;;;5110940;28;20028;-86
2021/04/28 03:16:37;;;;;;;7.90;3.20;;;2.60;99.90;;;;;;5111297;28;20032;-85
2021/04/28 03:19:06;;;;;;;4.72;2.90;;;2.80;99.90;;;;;;5110823;28;20529;-85
2021/04/28 03:21:37;;;;;;;6.47;3.30;;;2.90;99.90;;;;;;5128238;28;20063;-85
2021/04/28 03:24:04;;;;;;;5.88;3.53;;;2.90;99.90;;;;;;5128786;28;20032;-85
2021/04/28 03:26:31;;;;;;;5.93;3.20;;;2.60;99.90;;;;;;5128131;28;20054;-85
2021/04/28 03:28:58;;;;;;;5.30;3.13;;;2.60;99.90;;;;;;5094561;28;20036;-86
2021/04/28 03:31:25;;;;;;;6.13;3.22;;;2.60;99.90;;;;;;5094526;28;20442;-85
2021/04/28 03:33:52;;;;;;;5.88;3.13;;;2.50;99.90;;;;;;5094541;28;20036;-86
2021/04/28 03:36:19;;;;;;;5.50;3.10;;;2.50;99.90;;;;;;5129023;28;20036;-86
2021/04/28 03:38:45;;;;;;;5.95;2.92;;;2.70;99.90;;;;;;5127699;28;20064;-85
2021/04/28 03:41:12;;;;;;;4.90;3.20;;;2.50;99.90;;;;;;5110258;28;20058;-85
2021/04/28 03:43:40;;;;;;;5.88;2.90;;;2.50;99.90;;;;;;5111043;28;20032;-86
2021/04/28 03:46:07;;;;;;;6.75;3.28;;;2.50;99.90;;;;;;5128587;28;20377;-85
2021/04/28 03:48:34;;;;;;;6.65;3.13;;;2.90;99.90;;;;;;5094165;28;20046;-86
2021/04/28 03:51:03;;;;;;;6.30;3.13;;;2.50;99.90;;;;;;5110284;28;20483;-86
2021/04/28 03:53:29;;;;;;;7.70;3.13;;;2.50;99.90;;;;;;5127926;28;20040;-86
2021/04/28 03:55:56;;;;;;;6.60;3.00;;;2.50;99.90;;;;;;5094040;28;20035;-86
2021/04/28 03:58:23;;;;;;;7.45;3.17;;;2.50;99.90;;;;;;5127907;28;20032;-86
2021/04/28 04:00:50;;;;;;;6.68;2.85;;;2.50;99.90;;;;;;5110478;28;20044;-86
2021/04/28 04:03:16;;;;;;;8.43;3.17;;;2.90;99.90;;;;;;5110211;28;20074;-86
2021/04/28 04:05:43;;;;;;;5.75;3.28;;;2.70;99.90;;;;;;5128678;28;20039;-86
2021/04/28 04:08:11;;;;;;;8.32;3.40;;;2.40;99.90;;;;;;5094556;28;20036;-85
2021/04/28 04:10:37;;;;;;;6.45;3.03;;;2.40;99.90;;;;;;5110498;28;20050;-86
2021/04/28 04:13:04;;;;;;;6.65;3.00;;;2.50;99.90;;;;;;5093865;28;20085;-84
2021/04/28 04:15:31;;;;;;;6.57;3.65;;;2.50;99.90;;;;;;5094128;28;20522;-86
2021/04/28 04:17:58;;;;;;;7.82;3.35;;;2.50;99.90;;;;;;5110648;28;20472;-86
2021/04/28 04:20:24;;;;;;;6.82;3.20;;;2.60;99.90;;;;;;5110234;28;20074;-85
2021/04/28 04:22:51;;;;;;;6.75;3.20;;;2.60;99.90;;;;;;5110669;28;20036;-86
2021/04/28 04:25:18;;;;;;;4.75;3.00;;;2.60;99.90;;;;;;5110036;28;20040;-86
2021/04/28 04:27:45;;;;;;;4.60;2.80;;;2.70;99.90;;;;;;5093827;28;20115;-86
2021/04/28 04:30:12;;;;;;;6.82;3.15;;;2.70;99.90;;;;;;5110119;28;20035;-85
2021/04/28 04:32:39;;;;;;;5.57;3.00;;;2.70;99.90;;;;;;5110568;28;20487;-85
2021/04/28 04:35:06;;;;;;;6.78;3.10;;;2.90;99.90;;;;;;5093974;28;20039;-86
2021/04/28 04:37:34;;;;;;;9.07;3.13;;;2.70;99.90;;;;;;5094263;28;20395;-86
2021/04/28 04:40:02;;;;;;;6.50;3.03;;;2.70;99.90;;;;;;5110598;28;20048;-85
2021/04/28 04:42:29;;;;;;;6.95;3.20;;;2.80;99.90;;;;;;5093587;28;20040;-85
2021/04/28 04:44:56;;;;;;;5.10;2.83;;;2.80;99.90;;;;;;5110151;28;20114;-86
2021/04/28 04:47:22;;;;;;;4.28;2.80;;;2.80;99.90;;;;;;5110088;28;20545;-85
2021/04/28 04:49:49;;;;;;;7.95;3.03;;;3.20;99.90;;;;;;5110244;28;20032;-85
2021/04/28 04:52:16;;;;;;;6.20;3.20;;;2.90;99.90;;;;;;5109805;28;20094;-85
2021/04/28 04:54:43;;;;;;;6.32;3.20;;;3.00;99.90;;;;;;5110466;28;20082;-85
2021/04/28 04:57:09;;;;;;;6.63;3.15;;;3.00;99.90;;;;;;5110167;28;20042;-84
2021/04/28 04:59:36;;;;;;;5.18;2.85;;;3.10;99.90;;;;;;5127218;28;20064;-86
2021/04/28 05:02:03;;;;;;;5.07;3.45;;;3.10;99.90;;;;;;5093977;28;20032;-85
2021/04/28 05:04:30;;;;;;;6.15;3.00;;;3.20;99.90;;;;;;5132583;28;20067;-85
2021/04/28 05:06:56;;;;;;;6.97;2.95;;;3.70;99.90;;;;;;5114160;28;20040;-86
2021/04/28 05:09:24;;;;;;;6.05;2.80;;;3.40;99.90;;;;;;5096868;28;20054;-85
2021/04/28 05:11:51;;;;;;;6.93;2.95;;;3.80;99.90;;;;;;5130451;28;20040;-86
2021/04/28 05:14:17;;;;;;;7.85;2.80;;;3.60;99.90;;;;;;5096858;28;20040;-85
2021/04/28 05:16:44;;;;;;;7.05;2.90;;;3.60;99.90;;;;;;5131871;28;20036;-85
2021/04/28 05:19:11;;;;;;;5.85;3.22;;;3.60;99.90;;;;;;5114037;28;20157;-86
2021/04/28 05:21:38;;;;;;;5.45;3.30;;;4.00;99.90;;;;;;5113799;28;20039;-86
2021/04/28 05:24:05;;;;;;;5.55;3.08;;;3.80;99.90;;;;;;5113719;28;20115;-85
2021/04/28 05:26:32;;;;;;;5.30;2.88;;;3.80;99.90;;;;;;5129991;28;20126;-85
2021/04/28 05:28:59;;;;;;;6.68;3.25;;;4.00;99.90;;;;;;5097001;28;20067;-85
2021/04/28 05:31:25;;;;;;;6.35;2.65;;;4.00;99.90;;;;;;5096522;28;20040;-85
2021/04/28 05:33:52;;;;;;;5.00;2.90;;;4.20;99.90;;;;;;5113418;28;20088;-85
2021/04/28 05:36:19;;;;;;;8.13;3.25;;;4.20;99.90;;;;;;5113504;28;20083;-85
2021/04/28 05:38:46;;;;;;;5.38;2.90;;;4.30;99.90;;;;;;5113654;28;20395;-85
2021/04/28 05:41:13;;;;;;;5.40;2.75;;;4.60;99.90;;;;;;5113301;28;20056;-86
2021/04/28 05:43:39;;;;;;;6.47;3.10;;;4.40;99.90;;;;;;5096466;28;20028;-85
2021/04/28 05:46:08;;;;;;;7.45;3.13;;;4.50;99.90;;;;;;5113298;28;20042;-85
2021/04/28 05:48:35;;;;;;;5.32;3.20;;;4.70;99.90;;;;;;5129642;28;20046;-85
2021/04/28 05:51:02;;;;;;;5.75;3.00;;;5.00;99.80;;;;;;5127159;28;20036;-85
2021/04/28 05:53:29;;;;;;;5.07;3.08;;;4.50;99.70;;;;;;5112715;28;20368;-85
2021/04/28 05:56:00;;;;;;;5.90;2.80;;;4.50;99.70;;;;;;5129562;28;20036;-85
2021/04/28 05:58:27;;;;;;;6.00;3.38;;;4.50;99.70;;;;;;5133902;28;20039;-85
2021/04/28 06:00:54;;;;;;;5.15;2.97;;;4.50;99.80;;;;;;5150857;28;20077;-86
2021/04/28 06:03:20;;;;;;;7.45;3.30;;;4.60;99.80;;;;;;5099602;28;20119;-85
2021/04/28 06:05:48;;;;;;;6.28;3.20;;;4.60;99.90;;;;;;5141719;28;20040;-85
2021/04/28 06:08:16;;;;;;;7.90;3.47;;;4.60;99.90;;;;;;5113022;28;20106;-85
2021/04/28 06:10:44;;;;;;;5.57;2.97;;;4.80;99.80;;;;;;5150028;28;20060;-85
2021/04/28 06:13:11;;;;;;;7.18;3.40;;;4.80;99.70;;;;;;5138972;28;20032;-85
2021/04/28 06:15:38;;;;;;;6.22;3.22;;;4.90;99.60;;;;;;5129465;28;20036;-86
2021/04/28 06:18:06;;;;;;;7.90;3.67;;;5.00;99.60;;;;;;5121665;28;20476;-86
2021/04/28 06:20:34;;;;;;;5.43;3.15;;;5.30;99.50;;;;;;5132463;28;20067;-85
2021/04/28 06:23:02;;;;;;;6.68;3.50;;;5.20;99.40;;;;;;5132529;28;20028;-86
2021/04/28 06:25:29;;;;;;;7.47;3.25;;;5.30;99.00;;;;;;5116216;28;20032;-85
2021/04/28 06:27:57;;;;;;;6.50;3.47;;;5.60;98.90;;;;;;5149264;28;20460;-85
2021/04/28 06:30:24;;;;;;;6.72;3.17;;;5.50;98.60;;;;;;5149068;28;20035;-85
2021/04/28 06:32:50;;;;;;;6.88;3.53;;;5.80;98.50;;;;;;5132520;28;20479;-85
2021/04/28 06:35:17;;;;;;;7.72;3.42;;;5.70;98.60;;;;;;5132527;28;20085;-85
2021/04/28 06:37:44;;;;;;;6.28;3.33;;;5.90;98.60;;;;;;5132068;28;20063;-86
2021/04/28 06:40:13;;;;;;;5.55;3.10;;;5.90;98.00;;;;;;5116069;28;20081;-85
2021/04/28 06:42:40;;;;;;;8.38;3.67;;;5.90;97.80;;;;;;5098969;28;20541;-85
2021/04/28 06:45:08;;;;;;;6.32;3.35;;;6.10;97.40;;;;;;5136842;28;20035;-85
2021/04/28 06:47:35;;;;;;;8.48;3.38;;;6.10;96.70;;;;;;5148799;28;20035;-85
2021/04/28 06:50:03;;;;;;;8.43;3.25;;;6.20;96.40;;;;;;5128585;28;20039;-86
2021/04/28 06:52:30;;;;;;;6.53;3.22;;;6.30;96.00;;;;;;5117785;28;20123;-85
2021/04/28 06:54:57;;;;;;;5.22;3.38;;;6.40;96.10;;;;;;5111927;28;20093;-86
2021/04/28 06:57:24;;;;;;;9.45;3.65;;;6.50;96.00;;;;;;5127386;28;20131;-84
2021/04/28 06:59:51;;;;;;;6.78;3.47;;;6.60;95.60;;;;;;5129536;28;20031;-86
2021/04/28 07:02:19;;;;;;;6.38;3.30;;;6.60;95.10;;;;;;5132265;28;20094;-87
2021/04/28 07:04:45;;;;;;;7.07;3.45;;;6.80;94.90;;;;;;5148681;28;20380;-86
2021/04/28 07:07:12;;;;;;;5.32;3.10;;;7.00;94.90;;;;;;5113708;28;20040;-85
2021/04/28 07:09:39;;;;;;;9.20;3.30;;;7.10;93.90;;;;;;5111299;28;20079;-85
2021/04/28 07:12:06;;;;;;;7.53;3.47;;;7.20;93.50;;;;;;5095085;28;20485;-85
2021/04/28 07:14:33;;;;;;;8.50;3.33;;;7.30;92.60;;;;;;5114241;28;20028;-86
2021/04/28 07:17:00;;;;;;;6.50;3.22;;;7.40;92.40;;;;;;5120961;28;20551;-87
2021/04/28 07:19:27;;;;;;;9.07;3.85;;;7.50;92.40;;;;;;5148320;28;20043;-85
2021/04/28 07:21:54;;;;;;;7.57;3.47;;;7.70;91.70;;;;;;5131780;28;20040;-86
2021/04/28 07:24:20;;;;;;;6.95;3.50;;;7.80;91.50;;;;;;5115001;28;20032;-85
2021/04/28 07:26:47;;;;;;;6.82;3.30;;;7.90;91.20;;;;;;5130538;28;20058;-85
2021/04/28 07:29:14;;;;;;;5.88;3.67;;;8.00;90.70;;;;;;5127832;28;20032;-84
2021/04/28 07:31:41;;;;;;;13.27;3.65;;;8.10;90.70;;;;;;5111026;28;20047;-85
2021/04/28 07:34:07;;;;;;;7.60;3.42;;;8.20;90.30;;;;;;5126965;28;20035;-84
2021/04/28 07:36:34;;;;;;;7.18;3.38;;;8.30;89.40;;;;;;5131231;28;20106;-83
2021/04/28 07:39:01;;;;;;;9.02;3.60;;;8.40;89.90;;;;;;5131223;28;20039;-84
2021/04/28 07:41:28;;;;;;;5.95;3.65;;;8.60;89.40;;;;;;5131464;28;20502;-84
2021/04/28 07:43:55;;;;;;;6.50;3.70;;;8.70;88.70;;;;;;5113848;28;20046;-84
2021/04/28 07:46:21;;;;;;;6.55;3.75;;;8.90;87.40;;;;;;5099978;28;20495;-85
2021/04/28 07:48:48;;;;;;;8.32;3.60;;;9.00;85.50;;;;;;5127937;28;20036;-83
2021/04/28 07:51:18;;;;;;;8.15;3.85;;;9.10;85.00;;;;;;5127231;28;20409;-84
2021/04/28 07:53:45;;;;;;;6.90;3.35;;;9.20;85.00;;;;;;5127101;28;20054;-84
2021/04/28 07:56:11;;;;;;;6.88;3.80;;;9.40;85.50;;;;;;5127447;28;20035;-84
2021/04/28 07:58:39;;;;;;;8.68;3.53;;;9.50;83.40;;;;;;5125607;28;20028;-81
2021/04/28 08:01:05;;;;;;;6.97;3.97;;;9.60;83.90;;;;;;5118836;28;20059;-82
2021/04/28 08:03:32;;;;;;;8.68;4.20;;;9.70;84.00;;;;;;5113336;28;20071;-82
2021/04/28 08:05:59;;;;;;;7.55;3.92;;;9.80;81.50;;;;;;5118968;28;20028;-82
2021/04/28 08:08:26;;;;;;;5.80;3.65;;;9.90;78.50;;;;;;5110480;28;20040;-82
2021/04/28 08:10:52;;;;;;;6.28;3.95;;;10.00;78.90;;;;;;5098537;28;20111;-82
2021/04/28 08:13:23;;;;;;;7.80;3.83;;;10.10;79.60;;;;;;5113652;28;20396;-82
2021/04/28 08:15:49;;;;;;;8.82;3.78;;;10.30;78.20;;;;;;5146443;28;20458;-82
2021/04/28 08:18:16;;;;;;;8.82;3.90;;;10.50;78.60;;;;;;5097008;28;20139;-82
2021/04/28 08:20:45;;;;;;;6.47;4.05;;;10.60;77.10;;;;;;5130092;28;20039;-82
2021/04/28 08:23:11;;;;;;;5.70;3.75;;;10.70;77.40;;;;;;5113652;28;20495;-82
2021/04/28 08:25:38;;;;;;;7.53;3.92;;;10.90;76.80;;;;;;5129847;28;20032;-81
2021/04/28 08:28:05;;;;;;;6.60;3.85;;;11.00;76.70;;;;;;5126307;28;20153;-82
2021/04/28 08:30:32;;;;;;;6.55;4.03;;;11.20;75.60;;;;;;5126487;28;20036;-82
2021/04/28 08:32:59;;;;;;;9.63;4.20;;;11.30;74.40;;;;;;5109890;28;20048;-82
2021/04/28 08:35:26;;;;;;;8.40;3.90;;;11.50;72.80;;;;;;5139524;28;20046;-82
2021/04/28 08:37:53;;;;;;;6.38;3.88;;;11.50;72.30;;;;;;5133542;28;20404;-82
2021/04/28 08:40:20;;;;;;;6.03;3.65;;;11.70;71.80;;;;;;5151534;28;20062;-82
2021/04/28 08:42:47;;;;;;;7.75;4.20;;;12.10;71.70;;;;;;5133283;28;20042;-82
2021/04/28 08:45:16;;;;;;;8.35;4.60;;;12.00;71.00;;;;;;5134403;28;20036;-82
2021/04/28 08:47:44;;;;;;;8.30;4.10;;;12.00;69.70;;;;;;5150860;28;20036;-82
2021/04/28 08:50:12;;;;;;;11.52;4.20;;;12.20;68.10;;;;;;5134129;28;20110;-83
2021/04/28 08:52:39;;;;;;;7.13;4.65;;;12.30;68.10;;;;;;5133827;28;20058;-83
2021/04/28 08:55:08;;;;;;;6.78;4.03;;;12.40;67.10;;;;;;5151333;28;20043;-83
2021/04/28 08:57:36;;;;;;;7.63;4.13;;;12.50;69.00;;;;;;5133572;28;20498;-82
2021/04/28 09:00:08;;;;;;;10.82;4.03;;;12.60;68.10;;;;;;5114447;28;20415;-82
2021/04/28 09:02:49;;;;;;;9.10;5.00;;;12.60;66.40;;;;;;5150787;28;20396;-82
2021/04/28 09:05:16;;;;;;;8.50;4.57;;;12.80;66.40;;;;;;5137184;28;20435;-83
2021/04/28 09:07:44;;;;;;;10.38;4.32;;;12.90;65.70;;;;;;5129718;28;20089;-82
2021/04/28 09:10:14;;;;;;;9.23;4.28;;;13.10;65.70;;;;;;5134186;28;20077;-82
2021/04/28 09:12:54;;;;;;;8.98;4.45;;;13.20;64.90;;;;;;5150291;28;20032;-82
2021/04/28 09:15:39;;;;;;;9.40;4.88;;;13.10;61.70;;;;;;5133922;28;20054;-82
2021/04/28 09:18:09;;;;;;;6.95;4.32;;;13.30;62.00;;;;;;5150971;28;20043;-82
2021/04/28 09:20:39;;;;;;;8.95;4.68;;;13.30;61.40;;;;;;5151142;28;20039;-82
2021/04/28 09:23:20;;;;;;;8.43;4.40;;;13.40;62.20;;;;;;5129798;28;20036;-83
2021/04/28 09:25:49;;;;;;;7.45;4.95;;;13.60;61.30;;;;;;5131180;28;20062;-82
2021/04/28 09:28:31;;;;;;;8.05;4.40;;;13.80;60.50;;;;;;5131366;28;20039;-81
2021/04/28 09:31:07;;;;;;;8.43;5.00;;;13.80;58.70;;;;;;5129356;28;20047;-82
2021/04/28 09:33:40;;;;;;;7.47;4.78;;;13.90;59.40;;;;;;5113341;28;20136;-83
2021/04/28 09:36:08;;;;;;;6.38;4.45;;;14.00;59.60;;;;;;5130084;28;20036;-83
2021/04/28 09:38:56;;;;;;;8.18;4.40;;;14.10;59.10;;;;;;5129705;28;20388;-83
2021/04/28 09:41:48;;;;;;;12.13;4.85;;;14.20;56.20;;;;;;5145158;28;20052;-83
2021/04/28 09:44:18;;;;;;;6.78;4.22;;;14.30;57.00;;;;;;5129861;28;20062;-83
2021/04/28 09:47:03;;;;;;;7.57;4.90;;;14.30;55.80;;;;;;5129243;28;20487;-82
2021/04/28 09:49:55;;;;;;;7.13;4.57;;;14.40;56.10;;;;;;5142963;28;20050;-83
2021/04/28 09:52:30;;;;;;;9.63;4.55;;;14.50;56.20;;;;;;5147919;28;20038;-83
2021/04/28 09:55:02;;;;;;;6.75;4.50;;;14.60;54.40;;;;;;5129444;28;20035;-83
2021/04/28 09:57:34;;;;;;;8.63;4.35;;;14.70;55.20;;;;;;5129510;28;20475;-83
2021/04/28 10:00:03;;;;;;;10.48;4.68;;;14.70;54.80;;;;;;5135426;28;20537;-83
2021/04/28 10:02:31;;;;;;;8.95;4.50;;;14.70;53.40;;;;;;5129866;28;20029;-83
2021/04/28 10:05:20;;;;;;;6.65;4.30;;;14.80;52.80;;;;;;5128764;28;20098;-82
2021/04/28 10:07:47;;;;;;;7.93;4.28;;;14.80;50.50;;;;;;5128927;28;20085;-82
2021/04/28 10:10:16;;;;;;;9.85;4.43;;;14.80;53.20;;;;;;5112432;28;20176;-83
2021/04/28 10:12:43;;;;;;;11.75;4.95;;;15.00;53.50;;;;;;5112052;28;20097;-82
2021/04/28 10:15:10;;;;;;;6.75;4.78;;;15.00;54.20;;;;;;5128927;28;20032;-83
2021/04/28 10:17:39;;;;;;;9.40;4.30;;;15.20;53.30;;;;;;5112121;28;20166;-82
2021/04/28 10:20:08;;;;;;;10.20;4.53;;;15.30;52.90;;;;;;5135058;28;20377;-83
2021/04/28 10:22:35;;;;;;;8.30;4.22;;;15.40;52.80;;;;;;5133017;28;20043;-84
2021/04/28 10:25:07;;;;;;;8.27;4.47;;;15.40;51.90;;;;;;5148586;28;20039;-83
2021/04/28 10:27:37;;;;;;;6.55;4.40;;;15.50;52.90;;;;;;5149657;28;20038;-86
2021/04/28 10:30:07;;;;;;;7.72;4.45;;;15.60;52.10;;;;;;5118328;28;20043;-85
2021/04/28 10:32:35;;;;;;;9.40;4.78;;;15.60;51.40;;;;;;5129097;28;20039;-84
2021/04/28 10:35:10;;;;;;;9.93;5.03;;;15.70;51.60;;;;;;5111688;28;20032;-85
2021/04/28 10:37:38;;;;;;;8.20;4.75;;;15.70;50.30;;;;;;5129493;28;20040;-85
2021/04/28 10:40:12;;;;;;;9.02;5.18;;;15.70;51.20;;;;;;5111469;28;20066;-86
2021/04/28 10:42:40;;;;;;;9.43;5.05;;;15.70;50.90;;;;;;5129915;28;20059;-85
2021/04/28 10:45:09;;;;;;;10.30;5.43;;;15.90;51.90;;;;;;5131622;28;20027;-86
2021/04/28 10:47:45;;;;;;;7.60;5.00;;;16.00;51.40;;;;;;5149395;28;20093;-83
2021/04/28 10:50:47;;;;;;;10.60;5.28;;;15.90;50.10;;;;;;5148982;28;20035;-84
2021/04/28 10:53:21;;;;;;;12.35;5.20;;;16.00;50.90;;;;;;5132441;28;20039;-84
2021/04/28 10:55:50;;;;;;;8.50;5.18;;;16.10;50.80;;;;;;5148983;28;20042;-87
2021/04/28 10:58:35;;;;;;;7.68;5.57;;;16.00;49.50;;;;;;5149274;28;20036;-85
2021/04/28 11:01:03;;;;;;;8.00;5.30;;;15.90;49.00;;;;;;5147585;28;20476;-87
2021/04/28 11:03:51;;;;;;;7.45;5.00;;;15.90;48.50;;;;;;5149484;28;20031;-84
2021/04/28 11:06:21;;;;;;;9.50;5.55;;;16.00;49.90;;;;;;5148517;28;20059;-85
2021/04/28 11:09:00;;;;;;;8.98;4.88;;;16.00;50.10;;;;;;5148790;28;20039;-87
2021/04/28 11:11:38;;;;;;;9.30;5.40;;;16.10;50.60;;;;;;5148828;28;20055;-86
2021/04/28 11:14:11;;;;;;;11.23;6.30;;;16.20;50.50;;;;;;5148369;28;20488;-85
2021/04/28 11:16:42;;;;;;;9.73;5.47;;;16.20;50.40;;;;;;5143046;28;20040;-84
2021/04/28 11:19:35;;;;;;;8.20;5.80;;;16.30;49.40;;;;;;5148040;28;20043;-84
2021/04/28 11:22:06;;;;;;;8.90;5.57;;;16.20;49.40;;;;;;5130796;28;20093;-84
2021/04/28 11:25:02;;;;;;;10.07;6.28;;;16.10;48.80;;;;;;5131815;28;20060;-84
2021/04/28 11:27:42;;;;;;;9.63;5.25;;;16.10;48.70;;;;;;5129245;28;20400;-85
2021/04/28 11:30:23;;;;;;;8.13;5.22;;;16.20;49.20;;;;;;5136544;28;20115;-84
2021/04/28 11:33:12;;;;;;;11.20;6.05;;;16.40;50.00;;;;;;5137198;28;20036;-84
2021/04/28 11:35:42;;;;;;;8.63;5.75;;;16.50;48.50;;;;;;5127212;28;20042;-84
2021/04/28 11:38:14;;;;;;;9.40;5.40;;;16.50;47.50;;;;;;5126755;28;20036;-85
2021/04/28 11:41:00;;;;;;;6.85;5.43;;;16.30;47.20;;;;;;5128275;28;20044;-85
2021/04/28 11:43:33;;;;;;;10.68;5.57;;;16.20;47.30;;;;;;5128323;28;20035;-84
2021/04/28 11:46:11;;;;;;;11.73;5.45;;;16.40;48.40;;;;;;5126620;28;20036;-84
2021/04/28 11:48:40;;;;;;;8.35;5.65;;;16.60;49.30;;;;;;5127686;28;20488;-84
2021/04/28 11:51:16;;;;;;;11.48;5.57;;;16.60;48.00;;;;;;5126799;28;20047;-85
2021/04/28 11:53:46;;;;;;;8.68;5.10;;;16.50;48.60;;;;;;5127415;28;20079;-85
2021/04/28 11:56:43;;;;;;;9.93;5.50;;;16.30;45.30;;;;;;5127007;28;20553;-84
2021/04/28 11:59:26;;;;;;;10.65;6.18;;;16.50;47.60;;;;;;5126580;28;20126;-84
2021/04/28 12:02:00;;;;;;;7.50;5.53;;;16.60;48.30;;;;;;5146477;28;20072;-84
2021/04/28 12:04:32;;;;;;;10.35;6.20;;;16.50;47.80;;;;;;5138699;28;20042;-84
2021/04/28 12:07:00;;;;;;;10.50;6.10;;;16.40;47.80;;;;;;5126465;28;20035;-83
2021/04/28 12:09:52;;;;;;;11.20;6.70;;;16.60;48.50;;;;;;5093504;28;20543;-84
2021/04/28 12:12:30;;;;;;;7.60;5.65;;;16.40;46.70;;;;;;5126850;28;20036;-84
2021/04/28 12:15:06;;;;;;;10.20;5.70;;;16.40;47.00;;;;;;5128905;28;20055;-84
2021/04/28 12:17:38;;;;;;;14.32;5.85;;;16.50;48.30;;;;;;5136564;28;20079;-84
2021/04/28 12:20:08;;;;;;;8.35;5.22;;;16.50;47.90;;;;;;5127825;28;20044;-84
2021/04/28 12:22:35;;;;;;;10.98;5.72;;;16.60;46.90;;;;;;5137623;28;20384;-84
2021/04/28 12:25:05;;;;;;;13.68;6.30;;;16.70;46.70;;;;;;5125073;28;20086;-84
2021/04/28 12:27:34;;;;;;;10.52;5.75;;;16.60;45.10;;;;;;5128109;28;20038;-84
2021/04/28 12:30:09;;;;;;;10.23;6.40;;;16.70;46.80;;;;;;5109474;28;20089;-84
2021/04/28 12:32:45;;;;;;;10.43;6.00;;;16.70;47.30;;;;;;5126385;28;20040;-84
2021/04/28 12:35:21;;;;;;;9.98;5.63;;;16.90;47.10;;;;;;5145051;28;20036;-85
2021/04/28 12:37:58;;;;;;;11.32;6.40;;;16.80;46.20;;;;;;5146797;28;20114;-82
2021/04/28 12:40:48;;;;;;;9.75;5.70;;;16.90;46.80;;;;;;5147271;28;20055;-84
2021/04/28 12:43:24;;;;;;;10.52;6.05;;;16.90;46.60;;;;;;5146411;28;20043;-79
2021/04/28 12:45:51;;;;;;;9.20;5.85;;;16.90;46.70;;;;;;5148631;28;20031;-84
2021/04/28 12:48:20;;;;;;;11.52;5.88;;;16.70;44.90;;;;;;5147039;28;20032;-85
2021/04/28 12:50:50;;;;;;;14.27;6.40;;;16.60;45.60;;;;;;5147227;28;20032;-86
2021/04/28 12:53:20;;;;;;;10.23;5.95;;;16.50;44.90;;;;;;5146834;28;20039;-85
2021/04/28 12:55:53;;;;;;;13.13;5.82;;;16.40;45.60;;;;;;5147424;28;20036;-84
2021/04/28 12:58:22;;;;;;;9.52;5.88;;;16.20;46.20;;;;;;5130770;28;20122;-86
2021/04/28 13:00:53;;;;;;;10.45;5.75;;;16.20;46.60;;;;;;5130084;28;20057;-85
2021/04/28 13:03:22;;;;;;;9.38;5.88;;;16.20;46.20;;;;;;5147105;28;20085;-85
2021/04/28 13:05:56;;;;;;;9.07;5.93;;;16.20;46.00;;;;;;5139471;28;20082;-85